Terminal Aerodrome Forecast
Issued by NWS Sioux Falls, SD

Home | Current Version | Previous Version | Graphics & Text | Print | Product List | Glossary On
Versions: 1 2 3 4 5 6 7 8 9 10 11 12 13 14 15 16 17 18 19 20 21 22 23 24 25 26 27 28 29 30 31 32 33
000
FTUS43 KFSD 260732 AAA
TAFSUX
TAF AMD
KSUX 260732Z 2608/2706 VRB03KT 3SM BR SCT100
      TEMPO 2608/2610 1SM BR
     FM261000 11003KT P6SM MIFG SCT120
     FM261300 12005KT P6SM SCT100
     FM261600 14009KT P6SM SCT120
     FM270100 12006KT P6SM BKN150=

USA.gov is the U.S. government's official web portal to all federal, state and local government web resources and services.